Pronóstico
Mapa Interactivo
Aviación
Climatología
Hidrometeorología
Agrometeorología
Estaciones Automáticas
Transparencia
OMM WMO
Portada
Institución
Noticias
Imágenes
Tsunami
Historial
Boletines y Alertas
Contactos
Buscar Contenidos
Informe del Tiempo

 

           

VUELOS DE BAJO NIVEL DESDE SUPERFICIE HASTA 24,000 PIES. 

VALIDO DESDE 241200Z...…………………….…………………HASTA 250000Z
 

SANTO DOMINGO FIR...PORT-AU-PRINCE FIR HISPANIOLA...SCT020 SCT100. TIL 13Z AREAS VIS 1-3SM BR. BECM 1618 BKN025 BKN055 TOP TO FL200. WDLY SCT SHRA/ISOL TSRA. OTLK...VFR SHRA TSRA BECM 04Z VFR. WTRS SE OF 17N72W-18N68W LN...BKN025 BKN055. TOP LYRD TO FL240. WDLY SCT SHRA. OTLK...MVFR CIG SHRA. RMNDR OF WTRS...SCT025 SCT060. ISOL SHRA. OTLK...VFR SHRA.

 

5,000 FT.

10,000 FT.

18,000 FT.

24,000 FT.

MDSD

1705KT+17ºC

3510KT+09ºC

3310KT-07ºC

3215KT-18ºC

MTPP

1605KT+17ºC

3410KT+09ºC

3410KT-07ºC

3315KT-18ºC

TJSJ

0415KT+15ºC

0205KT+08ºC

3305KT-07ºC

3405KT-19ºC

 

 

 

 

 

 


TAF 

TAF MDPP 241000Z 2412/2512 00000KT 9999 FEW016 BECMG 2413/2415 06012KT=

TAF MDST 241000Z 2412/2512 10010KT 9999 SCT018 SCT080 PROB30 2412/2418 8000 –RA BKN018 SCT080=

TAF MDPC 241000Z 2412/2512 07010KT 9999 FEW018 PROB30 2410/2416 8000 –RA SCT018 SCT080=

TAF MDBH 241000Z 2412/2512 13010KT 9999 FEW016CB FEW022 SCT300 PROB30 2418/2500 8000 -RA SCT016 SCT070=

TAF MDJB 241000Z 2412/2512 00000KT 9999 SCT016 PROB30 2415/2420 8000 –RA BKN014 SCT070 BECMG 2413/2415 09010KT=

TAF MDSD 241000Z 2412/2512 04004KT 9999 SCT016 PROB30 2417/2423 7000 -RA BKN016 SCT070=

TAF MDLR 241000Z 2412/2512 00000KT 9999 SCT016 PROB30 2418/2423 8000 -RA BKN016 SCT070=

TAF MDCY 241000Z 2412/2512 00000KT 9999 SCT016 PROB30 2412/2418 8000 –RA BKN016= 

KMIA 240900Z 2409/2512 VRB03KT P6SM FEW015 FM241400 23008KT P6SM VCSH SCT030 SCT050 
FM241800 25011KT P6SM VCTS SCT030CB BKN050 FM250000 27005KT P6SM VCSH FEW030 SCT080 BKN120 FM250600 31005KT P6SM FEW120 SCT250
 

KJFK 240843Z 2409/2512 VRB03KT P6SM BKN250 FM241500 14007KT P6SM SCT250 
FM241800 14011KT P6SM BKN250 FM242300 11010KT P6SM OVC035 FM250000 11010KT 5SM -RA OVC018 FM250300 09011KT 5SM -RA OVC006 FM250500 09010KT 3SM RA OVC006 FM251000 10013G19KT 2SM RA BR OVC006
 

TJSJ 240528Z 2406/2506 VRB03KT P6SM VCSH FEW030 SCT045 FM241330 07012KT P6SM FEW028 SCT080 FM241600 07017KT P6SM VCSH SCT030 SCT080 FM242200 11007KT P6SM FEW030 SCT100 

MUHA 240500Z 2406/2506 VRB03KT 9000 FEW030 TEMPO 2420/2424 VRB10KT 5000 TSRA FEW020CB BKN025 

TAF MUGM 2407/2507 34008KT 9999 FEW080 SCT250 QNH2995INS BECMG 2416/2418 16012KT 9999 SCT100 BKN250 QNH2992INS BECMG 2501/2503 33006KT 9999 BKN250 QNH2994INS T22/2411Z T31/2418Z FN00172 

TAF TNCC 2412/2512 09015KT 9999 FEW025 PROB30 TEMPO 2412/2416 BKN020

TAF MKJP 240515Z 2406/2506 35005KT 9999 FEW022 BECMG 2414/2416 14018KT FEW022CB BECMG 2502/2504 36005KT

 

PREPARADO POR: ADELAIDA PERALTA V. 24 DE ABRIL DEL 2018-